Time;durP1;ratioP1;P1;durP2;ratioP2;P2;SDS_P1;SDS_P2;PMS_P1;PMS_P2;Temp;Humidity;BMP_temperature;BMP_pressure;BME280_temperature;BME280_humidity;BME280_pressure;Samples;Min_cycle;Max_cycle;Signal;HPM_P1;HPM_P2
2023/03/12 00:00:20;;;;;;;6.82;4.55;;;;;;;;;;5117318;27;20051;-84
2023/03/12 00:02:46;;;;;;;4.63;4.10;;;;;;;;;;5123719;27;20054;-82
2023/03/12 00:05:12;;;;;;;9.27;5.05;;;;;;;;;;5144219;27;20273;-82
2023/03/12 00:07:38;;;;;;;7.07;4.60;;;;;;;;;;5123376;27;20130;-82
2023/03/12 00:10:05;;;;;;;6.55;4.60;;;;;;;;;;5140228;27;20047;-83
2023/03/12 00:12:31;;;;;;;6.70;5.30;;;;;;;;;;5140709;27;20043;-82
2023/03/12 00:14:57;;;;;;;7.53;4.95;;;;;;;;;;5118678;27;20117;-81
2023/03/12 00:17:23;;;;;;;8.40;5.43;;;;;;;;;;5139331;27;20042;-81
2023/03/12 00:19:53;;;;;;;6.80;5.57;;;;;;;;;;5143305;27;20046;-81
2023/03/12 00:22:21;;;;;;;8.23;5.57;;;;;;;;;;5120616;27;20099;-81
2023/03/12 00:24:55;;;;;;;6.72;5.40;;;;;;;;;;5140744;27;20057;-81
2023/03/12 00:27:21;;;;;;;7.70;5.38;;;;;;;;;;5122489;27;20031;-81
2023/03/12 00:29:47;;;;;;;8.50;5.55;;;;;;;;;;5123177;27;20994;-81
2023/03/12 00:32:14;;;;;;;6.95;5.07;;;;;;;;;;5138928;27;20134;-81
2023/03/12 00:34:40;;;;;;;7.72;5.30;;;;;;;;;;5140129;27;20453;-81
2023/03/12 00:37:07;;;;;;;9.55;5.60;;;;;;;;;;5121389;27;20129;-82
2023/03/12 00:39:33;;;;;;;8.68;6.00;;;;;;;;;;5138456;27;20467;-82
2023/03/12 00:41:59;;;;;;;7.47;5.65;;;;;;;;;;5139347;27;20032;-81
2023/03/12 00:44:25;;;;;;;11.68;6.22;;;;;;;;;;5141196;27;20073;-81
2023/03/12 00:46:51;;;;;;;8.45;6.32;;;;;;;;;;5118579;27;20409;-81
2023/03/12 00:49:17;;;;;;;9.80;5.88;;;;;;;;;;5124656;27;20039;-82
2023/03/12 00:51:43;;;;;;;8.65;6.13;;;;;;;;;;5121160;27;20069;-81
2023/03/12 00:54:09;;;;;;;8.40;5.72;;;;;;;;;;5149965;27;20043;-82
2023/03/12 00:56:35;;;;;;;10.52;6.18;;;;;;;;;;5125576;27;20043;-82
2023/03/12 00:59:01;;;;;;;7.00;5.50;;;;;;;;;;5130788;27;20125;-82
2023/03/12 01:01:27;;;;;;;8.60;5.82;;;;;;;;;;5127912;27;20122;-81
2023/03/12 01:03:54;;;;;;;7.38;5.20;;;;;;;;;;5113383;27;20062;-82
2023/03/12 01:06:21;;;;;;;10.07;5.90;;;;;;;;;;5152875;27;20043;-82
2023/03/12 01:08:47;;;;;;;7.88;5.63;;;;;;;;;;5145064;27;20078;-82
2023/03/12 01:11:14;;;;;;;6.40;5.32;;;;;;;;;;5126511;27;20047;-82
2023/03/12 01:13:40;;;;;;;8.68;5.35;;;;;;;;;;5123810;27;20051;-81
2023/03/12 01:16:06;;;;;;;8.73;5.25;;;;;;;;;;5139053;27;20925;-82
2023/03/12 01:18:32;;;;;;;5.82;4.72;;;;;;;;;;5139883;27;20043;-82
2023/03/12 01:20:58;;;;;;;8.15;5.18;;;;;;;;;;5139589;27;20106;-82
2023/03/12 01:23:25;;;;;;;10.77;5.25;;;;;;;;;;5138924;27;20192;-82
2023/03/12 01:25:54;;;;;;;8.52;5.13;;;;;;;;;;5126874;27;20046;-81
2023/03/12 01:28:20;;;;;;;10.18;5.80;;;;;;;;;;5130898;27;20054;-82
2023/03/12 01:30:46;;;;;;;7.97;5.25;;;;;;;;;;5134803;27;20190;-81
2023/03/12 01:33:12;;;;;;;9.00;5.80;;;;;;;;;;5148175;27;20121;-82
2023/03/12 01:35:38;;;;;;;8.50;5.30;;;;;;;;;;5140320;27;20122;-82
2023/03/12 01:38:08;;;;;;;10.23;6.10;;;;;;;;;;5139839;27;20074;-82
2023/03/12 01:40:35;;;;;;;8.68;6.10;;;;;;;;;;5142984;27;20027;-82
2023/03/12 01:43:15;;;;;;;6.43;5.43;;;;;;;;;;5115558;27;20138;-81
2023/03/12 01:46:00;;;;;;;8.95;5.35;;;;;;;;;;5125522;27;20117;-81
2023/03/12 01:48:59;;;;;;;7.07;5.60;;;;;;;;;;5123672;27;20124;-82
2023/03/12 01:51:26;;;;;;;8.15;5.72;;;;;;;;;;5089927;27;20053;-81
2023/03/12 01:53:54;;;;;;;10.10;5.68;;;;;;;;;;5152375;27;20050;-81
2023/03/12 01:56:21;;;;;;;10.07;5.43;;;;;;;;;;5156314;27;20066;-82
2023/03/12 01:58:53;;;;;;;7.85;5.28;;;;;;;;;;5136836;27;20107;-82
2023/03/12 02:01:20;;;;;;;9.85;5.38;;;;;;;;;;5156261;27;20031;-82
2023/03/12 02:03:47;;;;;;;8.07;5.60;;;;;;;;;;5135449;27;20050;-81
2023/03/12 02:06:14;;;;;;;9.15;5.32;;;;;;;;;;5137559;27;20047;-82
2023/03/12 02:08:45;;;;;;;7.03;5.25;;;;;;;;;;5135116;27;20039;-82
2023/03/12 02:11:11;;;;;;;6.00;5.22;;;;;;;;;;5153537;27;20053;-82
2023/03/12 02:13:37;;;;;;;7.63;5.18;;;;;;;;;;5133485;27;20042;-81
2023/03/12 02:16:03;;;;;;;6.68;5.07;;;;;;;;;;5127232;27;20142;-82
2023/03/12 02:18:30;;;;;;;6.25;4.55;;;;;;;;;;5143349;27;20035;-82
2023/03/12 02:20:58;;;;;;;7.38;4.85;;;;;;;;;;5142299;27;20043;-82
2023/03/12 02:23:43;;;;;;;6.85;4.85;;;;;;;;;;5140579;27;22222;-81
2023/03/12 02:26:10;;;;;;;7.60;4.55;;;;;;;;;;5122892;27;20478;-82
2023/03/12 02:28:42;;;;;;;6.38;4.55;;;;;;;;;;5141958;27;20062;-82
2023/03/12 02:31:10;;;;;;;7.97;4.82;;;;;;;;;;5141821;27;20092;-82
2023/03/12 02:33:36;;;;;;;8.98;4.85;;;;;;;;;;5122615;27;20046;-81
2023/03/12 02:36:02;;;;;;;5.70;4.57;;;;;;;;;;5143047;27;20049;-82
2023/03/12 02:38:47;;;;;;;6.93;4.93;;;;;;;;;;5119967;27;20419;-82
2023/03/12 02:41:21;;;;;;;7.28;4.55;;;;;;;;;;5141688;27;20042;-82
2023/03/12 02:43:58;;;;;;;6.30;4.43;;;;;;;;;;5139962;27;20936;-82
2023/03/12 02:46:24;;;;;;;9.20;4.65;;;;;;;;;;5141253;27;22035;-82
2023/03/12 02:48:51;;;;;;;7.95;4.57;;;;;;;;;;5124082;27;20054;-82
2023/03/12 02:51:17;;;;;;;7.93;4.25;;;;;;;;;;5119842;27;20043;-82
2023/03/12 02:53:44;;;;;;;6.32;4.20;;;;;;;;;;5123284;27;20754;-82
2023/03/12 02:56:10;;;;;;;7.88;4.50;;;;;;;;;;5120949;27;20128;-82
2023/03/12 02:58:36;;;;;;;7.28;4.32;;;;;;;;;;5119368;27;20177;-82
2023/03/12 03:01:02;;;;;;;8.05;4.30;;;;;;;;;;5126075;27;20074;-82
2023/03/12 03:03:28;;;;;;;7.90;4.68;;;;;;;;;;5142856;27;20103;-82
2023/03/12 03:05:54;;;;;;;7.55;4.43;;;;;;;;;;5143197;27;20070;-82
2023/03/12 03:08:20;;;;;;;8.38;4.53;;;;;;;;;;5144244;27;20031;-82
2023/03/12 03:10:46;;;;;;;8.90;4.65;;;;;;;;;;5143554;27;20054;-82
2023/03/12 03:13:12;;;;;;;6.57;4.22;;;;;;;;;;5139785;27;21301;-82
2023/03/12 03:15:38;;;;;;;9.93;4.72;;;;;;;;;;5122548;27;20039;-82
2023/03/12 03:18:05;;;;;;;8.13;5.10;;;;;;;;;;5122170;27;20043;-82
2023/03/12 03:20:31;;;;;;;9.40;5.13;;;;;;;;;;5121277;27;20050;-82
2023/03/12 03:22:57;;;;;;;9.30;5.50;;;;;;;;;;5121901;27;20050;-82
2023/03/12 03:25:24;;;;;;;7.22;5.53;;;;;;;;;;5138958;27;20042;-81
2023/03/12 03:27:50;;;;;;;6.35;5.13;;;;;;;;;;5121028;27;20050;-82
2023/03/12 03:30:16;;;;;;;9.43;5.03;;;;;;;;;;5122488;27;20039;-82
2023/03/12 03:32:42;;;;;;;7.68;5.32;;;;;;;;;;5142734;27;20091;-82
2023/03/12 03:35:08;;;;;;;9.48;4.95;;;;;;;;;;5119413;27;20039;-82
2023/03/12 03:37:34;;;;;;;8.85;5.18;;;;;;;;;;5140372;27;20050;-82
2023/03/12 03:40:00;;;;;;;8.55;5.60;;;;;;;;;;5118931;27;20039;-82
2023/03/12 03:42:26;;;;;;;6.65;4.70;;;;;;;;;;5140395;27;20042;-81
2023/03/12 03:44:52;;;;;;;7.82;5.50;;;;;;;;;;5149266;27;20091;-81
2023/03/12 03:47:18;;;;;;;7.75;5.10;;;;;;;;;;5128662;27;20427;-82
2023/03/12 03:49:44;;;;;;;7.90;5.10;;;;;;;;;;5144266;27;20160;-82
2023/03/12 03:52:10;;;;;;;7.50;5.10;;;;;;;;;;5131715;27;20082;-82
2023/03/12 03:54:36;;;;;;;8.55;5.10;;;;;;;;;;5124685;27;20126;-81
2023/03/12 03:57:02;;;;;;;7.88;5.15;;;;;;;;;;5133033;27;20133;-82
2023/03/12 03:59:28;;;;;;;7.88;5.18;;;;;;;;;;5128368;27;20375;-82
2023/03/12 04:01:54;;;;;;;8.88;5.13;;;;;;;;;;5128625;27;20047;-82
2023/03/12 04:04:20;;;;;;;6.85;5.05;;;;;;;;;;5131784;27;20398;-82
2023/03/12 04:06:46;;;;;;;7.65;5.07;;;;;;;;;;5130860;27;20158;-82
2023/03/12 04:09:13;;;;;;;8.52;5.95;;;;;;;;;;5142632;27;20512;-81
2023/03/12 04:11:39;;;;;;;8.57;5.03;;;;;;;;;;5127072;27;20152;-81
2023/03/12 04:14:05;;;;;;;9.95;5.40;;;;;;;;;;5122251;27;20060;-81
2023/03/12 04:16:31;;;;;;;8.25;5.47;;;;;;;;;;5138642;27;20080;-81
2023/03/12 04:18:57;;;;;;;8.90;5.70;;;;;;;;;;5142308;27;20062;-82
2023/03/12 04:21:23;;;;;;;7.72;5.45;;;;;;;;;;5120216;27;20481;-82
2023/03/12 04:23:49;;;;;;;7.60;5.38;;;;;;;;;;5141985;27;20517;-81
2023/03/12 04:26:16;;;;;;;10.88;5.70;;;;;;;;;;5116152;27;20070;-81
2023/03/12 04:28:42;;;;;;;8.45;5.30;;;;;;;;;;5123478;27;20039;-82
2023/03/12 04:31:08;;;;;;;9.27;5.88;;;;;;;;;;5122433;27;20529;-81
2023/03/12 04:33:36;;;;;;;10.10;5.70;;;;;;;;;;5129415;27;20401;-81
2023/03/12 04:36:02;;;;;;;8.82;6.13;;;;;;;;;;5117621;27;20455;-82
2023/03/12 04:38:29;;;;;;;10.20;5.65;;;;;;;;;;5125781;27;20498;-82
2023/03/12 04:41:03;;;;;;;9.05;4.93;;;;;;;;;;5125722;27;20070;-81
2023/03/12 04:43:29;;;;;;;7.43;5.20;;;;;;;;;;5134211;27;20042;-81
2023/03/12 04:45:56;;;;;;;8.85;5.05;;;;;;;;;;5151327;27;20046;-81
2023/03/12 04:48:22;;;;;;;11.18;5.57;;;;;;;;;;5134501;27;20097;-81
2023/03/12 04:50:48;;;;;;;6.88;4.85;;;;;;;;;;5133316;27;20069;-81
2023/03/12 04:53:14;;;;;;;6.68;5.07;;;;;;;;;;5122586;27;20047;-81
2023/03/12 04:55:40;;;;;;;10.27;5.60;;;;;;;;;;5138658;27;20102;-81
2023/03/12 04:58:06;;;;;;;8.13;5.22;;;;;;;;;;5117405;27;20047;-81
2023/03/12 05:00:33;;;;;;;9.15;5.60;;;;;;;;;;5122281;27;20039;-81
2023/03/12 05:02:59;;;;;;;8.02;5.50;;;;;;;;;;5132878;27;20049;-81
2023/03/12 05:05:25;;;;;;;9.18;6.40;;;;;;;;;;5152206;27;20042;-81
2023/03/12 05:07:51;;;;;;;8.48;5.72;;;;;;;;;;5133259;27;20122;-82
2023/03/12 05:10:17;;;;;;;9.43;5.70;;;;;;;;;;5116018;27;20039;-81
2023/03/12 05:12:43;;;;;;;7.07;5.10;;;;;;;;;;5130973;27;20439;-82
2023/03/12 05:15:09;;;;;;;8.18;5.90;;;;;;;;;;5153309;27;20042;-81
2023/03/12 05:17:35;;;;;;;10.07;5.78;;;;;;;;;;5119114;28;20048;-81
2023/03/12 05:20:03;;;;;;;7.30;6.13;;;;;;;;;;5138665;27;20111;-81
2023/03/12 05:22:29;;;;;;;8.88;5.90;;;;;;;;;;5136081;27;20050;-82
2023/03/12 05:24:55;;;;;;;7.72;5.45;;;;;;;;;;5134206;27;20042;-81
2023/03/12 05:27:21;;;;;;;10.73;6.07;;;;;;;;;;5136927;27;20375;-81
2023/03/12 05:29:47;;;;;;;7.93;6.07;;;;;;;;;;5133765;27;20046;-81
2023/03/12 05:32:13;;;;;;;7.88;6.47;;;;;;;;;;5150931;27;20041;-81
2023/03/12 05:34:39;;;;;;;8.30;6.20;;;;;;;;;;5155874;27;20122;-81
2023/03/12 05:37:05;;;;;;;10.18;6.50;;;;;;;;;;5155792;27;20039;-81
2023/03/12 05:39:31;;;;;;;9.57;6.38;;;;;;;;;;5154926;27;20039;-81
2023/03/12 05:41:57;;;;;;;10.32;6.00;;;;;;;;;;5151863;27;20035;-80
2023/03/12 05:44:24;;;;;;;8.60;5.97;;;;;;;;;;5156415;27;20478;-81
2023/03/12 05:46:50;;;;;;;6.68;5.60;;;;;;;;;;5153876;27;20090;-81
2023/03/12 05:49:16;;;;;;;10.10;6.10;;;;;;;;;;5136154;27;20057;-81
2023/03/12 05:51:42;;;;;;;9.63;5.93;;;;;;;;;;5124622;27;20394;-81
2023/03/12 05:54:09;;;;;;;6.82;5.60;;;;;;;;;;5057897;27;20320;-80
2023/03/12 05:56:36;;;;;;;10.93;5.80;;;;;;;;;;5083444;27;20516;-80
2023/03/12 05:59:02;;;;;;;6.90;5.70;;;;;;;;;;5139405;27;20038;-81
2023/03/12 06:01:30;;;;;;;7.75;5.55;;;;;;;;;;5133845;27;20042;-81
2023/03/12 06:03:56;;;;;;;10.05;5.47;;;;;;;;;;5136144;27;20061;-81
2023/03/12 06:06:22;;;;;;;9.40;5.15;;;;;;;;;;5149091;27;20039;-81
2023/03/12 06:08:48;;;;;;;6.47;4.88;;;;;;;;;;5155119;27;20043;-81
2023/03/12 06:11:14;;;;;;;6.95;4.72;;;;;;;;;;5136943;27;20065;-81
2023/03/12 06:13:40;;;;;;;8.00;4.97;;;;;;;;;;5134924;27;20034;-81
2023/03/12 06:16:17;;;;;;;6.68;4.47;;;;;;;;;;5135164;27;20578;-81
2023/03/12 06:18:43;;;;;;;6.70;4.35;;;;;;;;;;5141863;27;20118;-81
2023/03/12 06:21:12;;;;;;;6.30;4.68;;;;;;;;;;5134824;27;20066;-81
2023/03/12 06:23:38;;;;;;;7.20;4.47;;;;;;;;;;5132240;27;20043;-81
2023/03/12 06:26:05;;;;;;;8.43;4.47;;;;;;;;;;5128645;27;20043;-81
2023/03/12 06:28:31;;;;;;;8.50;4.70;;;;;;;;;;5129206;27;20043;-81
2023/03/12 06:30:57;;;;;;;6.53;4.55;;;;;;;;;;5132776;27;20038;-81
2023/03/12 06:33:23;;;;;;;6.68;4.50;;;;;;;;;;5154727;27;20046;-80
2023/03/12 06:35:52;;;;;;;6.85;4.93;;;;;;;;;;5156842;27;20044;-81
2023/03/12 06:38:18;;;;;;;6.88;4.45;;;;;;;;;;5136370;27;20058;-81
2023/03/12 06:40:52;;;;;;;7.60;4.65;;;;;;;;;;5133179;27;20417;-81
2023/03/12 06:43:18;;;;;;;7.53;4.53;;;;;;;;;;5144707;27;20038;-81
2023/03/12 06:45:44;;;;;;;6.40;4.80;;;;;;;;;;5145625;27;20050;-81
2023/03/12 06:48:10;;;;;;;7.28;4.85;;;;;;;;;;5152549;27;20035;-81
2023/03/12 06:50:36;;;;;;;7.32;4.88;;;;;;;;;;5153525;27;20482;-81
2023/03/12 06:53:02;;;;;;;7.45;4.53;;;;;;;;;;5135162;27;20039;-81
2023/03/12 06:55:28;;;;;;;10.18;5.18;;;;;;;;;;5154570;27;20057;-81
2023/03/12 06:57:54;;;;;;;8.73;5.10;;;;;;;;;;5131708;27;20589;-81
2023/03/12 07:00:20;;;;;;;8.73;5.50;;;;;;;;;;5128674;27;20042;-81
2023/03/12 07:02:46;;;;;;;6.70;4.93;;;;;;;;;;5136071;27;20553;-80
2023/03/12 07:05:12;;;;;;;7.70;5.43;;;;;;;;;;5152539;27;20078;-81
2023/03/12 07:07:38;;;;;;;6.85;5.38;;;;;;;;;;5133674;27;20077;-81
2023/03/12 07:10:05;;;;;;;8.23;5.78;;;;;;;;;;5150040;27;20058;-80
2023/03/12 07:12:32;;;;;;;7.95;5.57;;;;;;;;;;5153173;27;20039;-81
2023/03/12 07:14:58;;;;;;;10.13;6.13;;;;;;;;;;5134493;27;20050;-81
2023/03/12 07:17:25;;;;;;;9.10;6.47;;;;;;;;;;5137131;27;20103;-81
2023/03/12 07:19:51;;;;;;;9.38;6.50;;;;;;;;;;5133640;27;20043;-81
2023/03/12 07:22:17;;;;;;;7.63;5.95;;;;;;;;;;5153555;27;20526;-80
2023/03/12 07:24:43;;;;;;;8.38;6.10;;;;;;;;;;5134910;27;20042;-81
2023/03/12 07:27:09;;;;;;;11.73;6.88;;;;;;;;;;5132485;27;20046;-81
2023/03/12 07:29:35;;;;;;;9.70;6.95;;;;;;;;;;5143895;27;20047;-81
2023/03/12 07:32:01;;;;;;;11.52;6.65;;;;;;;;;;5118531;27;20053;-81
2023/03/12 07:34:27;;;;;;;8.32;6.45;;;;;;;;;;5134195;27;20043;-81
2023/03/12 07:36:53;;;;;;;9.18;6.97;;;;;;;;;;5115901;27;20054;-81
2023/03/12 07:39:19;;;;;;;9.40;6.45;;;;;;;;;;5124377;27;20082;-81
2023/03/12 07:41:45;;;;;;;10.00;7.07;;;;;;;;;;5142706;27;20471;-81
2023/03/12 07:44:11;;;;;;;8.82;7.00;;;;;;;;;;5122881;27;20419;-81
2023/03/12 07:46:37;;;;;;;12.75;7.45;;;;;;;;;;5131924;27;20047;-80
2023/03/12 07:49:03;;;;;;;9.00;6.78;;;;;;;;;;5124078;27;20038;-81
2023/03/12 07:51:29;;;;;;;9.32;6.30;;;;;;;;;;5137531;27;20068;-81
2023/03/12 07:53:56;;;;;;;14.35;7.18;;;;;;;;;;5147903;27;20039;-81
2023/03/12 07:56:22;;;;;;;9.55;7.03;;;;;;;;;;5128443;27;20043;-81
2023/03/12 07:58:48;;;;;;;14.02;7.47;;;;;;;;;;5129962;27;20088;-81
2023/03/12 08:01:14;;;;;;;9.57;6.70;;;;;;;;;;5152278;27;20055;-81
2023/03/12 08:03:40;;;;;;;10.50;7.15;;;;;;;;;;5133948;27;20038;-81
2023/03/12 08:06:06;;;;;;;10.55;7.63;;;;;;;;;;5153568;27;20047;-81
2023/03/12 08:08:32;;;;;;;8.63;7.05;;;;;;;;;;5151719;27;20095;-81
2023/03/12 08:10:59;;;;;;;9.73;7.55;;;;;;;;;;5134523;27;20038;-81
2023/03/12 08:13:26;;;;;;;14.63;7.57;;;;;;;;;;5135319;27;20044;-81
2023/03/12 08:15:52;;;;;;;10.73;7.05;;;;;;;;;;5137133;27;20130;-82
2023/03/12 08:18:18;;;;;;;11.93;7.65;;;;;;;;;;5154893;27;20090;-82
2023/03/12 08:20:45;;;;;;;9.48;7.05;;;;;;;;;;5140022;27;20062;-81
2023/03/12 08:23:11;;;;;;;8.48;7.15;;;;;;;;;;5114917;27;20047;-79
2023/03/12 08:25:37;;;;;;;10.02;7.25;;;;;;;;;;5131062;27;20050;-82
2023/03/12 08:28:03;;;;;;;10.02;7.55;;;;;;;;;;5134808;27;20046;-82
2023/03/12 08:30:30;;;;;;;9.15;7.43;;;;;;;;;;5130631;27;20051;-81
2023/03/12 08:32:56;;;;;;;11.40;7.22;;;;;;;;;;5152628;27;20042;-81
2023/03/12 08:35:22;;;;;;;10.77;7.43;;;;;;;;;;5129833;27;20043;-81
2023/03/12 08:37:48;;;;;;;10.90;7.80;;;;;;;;;;5133099;27;20176;-81
2023/03/12 08:40:14;;;;;;;11.73;7.90;;;;;;;;;;5143310;27;20560;-82
2023/03/12 08:42:41;;;;;;;10.70;7.85;;;;;;;;;;5134117;27;20042;-81
2023/03/12 08:45:08;;;;;;;12.95;8.45;;;;;;;;;;5131760;27;20035;-81
2023/03/12 08:47:34;;;;;;;11.18;8.40;;;;;;;;;;5144445;27;20046;-81
2023/03/12 08:50:00;;;;;;;11.00;8.70;;;;;;;;;;5137173;27;20042;-81
2023/03/12 08:52:27;;;;;;;12.57;9.13;;;;;;;;;;5129329;27;20039;-81
2023/03/12 08:54:53;;;;;;;11.85;9.43;;;;;;;;;;5137956;27;20073;-81
2023/03/12 08:57:19;;;;;;;13.30;9.30;;;;;;;;;;5133991;27;20058;-81
2023/03/12 08:59:45;;;;;;;11.68;9.32;;;;;;;;;;5151067;27;20509;-83
2023/03/12 09:02:11;;;;;;;14.50;9.65;;;;;;;;;;5142691;27;20039;-83
2023/03/12 09:04:38;;;;;;;15.25;10.63;;;;;;;;;;5129680;27;20057;-82
2023/03/12 09:07:04;;;;;;;14.05;10.65;;;;;;;;;;5145751;27;20042;-82
2023/03/12 09:09:30;;;;;;;13.82;10.05;;;;;;;;;;5135750;27;20039;-82
2023/03/12 09:11:56;;;;;;;16.42;11.20;;;;;;;;;;5139472;27;20078;-82
2023/03/12 09:14:22;;;;;;;17.95;12.48;;;;;;;;;;5120121;27;20042;-82
2023/03/12 09:16:49;;;;;;;19.45;14.00;;;;;;;;;;5154567;27;20046;-83
2023/03/12 09:19:15;;;;;;;17.38;14.20;;;;;;;;;;5151463;27;20042;-82
2023/03/12 09:21:41;;;;;;;13.95;11.52;;;;;;;;;;5134762;27;20410;-82
2023/03/12 09:24:07;;;;;;;15.65;13.00;;;;;;;;;;5154539;27;20519;-82
2023/03/12 09:26:33;;;;;;;19.55;13.82;;;;;;;;;;5132625;27;20043;-81
2023/03/12 09:28:59;;;;;;;20.30;13.20;;;;;;;;;;5132277;27;20154;-82
2023/03/12 09:31:25;;;;;;;18.55;13.65;;;;;;;;;;5129012;27;20042;-81
2023/03/12 09:33:52;;;;;;;17.75;13.20;;;;;;;;;;5133599;27;20050;-81
2023/03/12 09:36:18;;;;;;;17.40;13.20;;;;;;;;;;5151047;27;20035;-81
2023/03/12 09:38:44;;;;;;;18.40;13.73;;;;;;;;;;5147582;27;20552;-81
2023/03/12 09:41:20;;;;;;;17.13;13.95;;;;;;;;;;5126322;27;20042;-79
2023/03/12 09:43:48;;;;;;;19.10;14.75;;;;;;;;;;5128676;27;20039;-87
2023/03/12 09:46:17;;;;;;;20.70;14.40;;;;;;;;;;5125388;27;20039;-84
2023/03/12 09:48:44;;;;;;;18.13;14.77;;;;;;;;;;5118056;28;20129;-83
2023/03/12 09:51:16;;;;;;;18.95;14.40;;;;;;;;;;5145920;27;20046;-83
2023/03/12 09:53:47;;;;;;;20.00;15.45;;;;;;;;;;5131688;27;20043;-82
2023/03/12 09:56:15;;;;;;;19.88;14.45;;;;;;;;;;5116622;27;20039;-79
2023/03/12 09:58:46;;;;;;;18.30;13.95;;;;;;;;;;5122347;28;20051;-81
2023/03/12 10:01:20;;;;;;;23.70;15.98;;;;;;;;;;5140387;27;20045;-81
2023/03/12 10:03:55;;;;;;;28.20;19.55;;;;;;;;;;5151866;27;20045;-85
2023/03/12 10:06:24;;;;;;;23.48;17.48;;;;;;;;;;5152451;27;20043;-90
2023/03/12 10:08:50;;;;;;;23.30;16.25;;;;;;;;;;5126839;27;20042;-88
2023/03/12 10:11:28;;;;;;;24.75;17.08;;;;;;;;;;5125081;27;20050;-87
2023/03/12 10:13:57;;;;;;;25.52;17.67;;;;;;;;;;5129279;27;20046;-87
2023/03/12 10:16:32;;;;;;;22.15;16.60;;;;;;;;;;5145843;27;20414;-81
2023/03/12 10:19:06;;;;;;;24.92;18.17;;;;;;;;;;5139299;27;20066;-84
2023/03/12 10:21:44;;;;;;;25.25;19.33;;;;;;;;;;5142770;27;20046;-84
2023/03/12 10:24:33;;;;;;;27.95;18.38;;;;;;;;;;5133154;27;20077;-83
2023/03/12 10:27:00;;;;;;;26.48;16.48;;;;;;;;;;5122937;27;20047;-81
2023/03/12 10:29:26;;;;;;;28.75;19.90;;;;;;;;;;5123549;27;20387;-87
2023/03/12 10:32:00;;;;;;;27.45;19.10;;;;;;;;;;5121716;27;20489;-87
2023/03/12 10:34:36;;;;;;;28.92;20.40;;;;;;;;;;5123668;27;20061;-85
2023/03/12 10:37:06;;;;;;;28.75;18.80;;;;;;;;;;5124476;27;20038;-86
2023/03/12 10:39:32;;;;;;;40.38;25.75;;;;;;;;;;5140883;27;20098;-85
2023/03/12 10:42:01;;;;;;;31.58;21.48;;;;;;;;;;5131896;27;20047;-84
2023/03/12 10:44:28;;;;;;;31.35;19.65;;;;;;;;;;5135705;27;20047;-83
2023/03/12 10:46:58;;;;;;;27.80;17.30;;;;;;;;;;5146649;27;20042;-84
2023/03/12 10:49:26;;;;;;;32.78;20.02;;;;;;;;;;5155781;27;20054;-81
2023/03/12 10:52:00;;;;;;;33.60;19.80;;;;;;;;;;5132328;27;20087;-82
2023/03/12 10:54:39;;;;;;;30.88;19.48;;;;;;;;;;5129919;27;20050;-84
2023/03/12 10:57:06;;;;;;;34.05;21.58;;;;;;;;;;5145029;27;20046;-85
2023/03/12 10:59:34;;;;;;;35.92;18.40;;;;;;;;;;5141836;27;20047;-87
2023/03/12 11:02:00;;;;;;;22.92;13.25;;;;;;;;;;5135483;27;20046;-84
2023/03/12 11:04:31;;;;;;;30.35;13.48;;;;;;;;;;5135825;27;20035;-88
2023/03/12 11:07:17;;;;;;;29.98;14.02;;;;;;;;;;5136268;27;20046;-86
2023/03/12 11:09:43;;;;;;;26.83;14.40;;;;;;;;;;5144377;27;20136;-82
2023/03/12 11:12:26;;;;;;;28.17;14.18;;;;;;;;;;5124964;27;20076;-86
2023/03/12 11:14:52;;;;;;;25.10;13.30;;;;;;;;;;5152551;27;20171;-84
2023/03/12 11:17:20;;;;;;;20.33;10.60;;;;;;;;;;5133618;27;20050;-84
2023/03/12 11:19:46;;;;;;;33.30;14.57;;;;;;;;;;5142205;27;20039;-84
2023/03/12 11:22:14;;;;;;;27.80;11.07;;;;;;;;;;5126007;27;20046;-87
2023/03/12 11:24:58;;;;;;;29.80;11.68;;;;;;;;;;5123397;27;20047;-79
2023/03/12 11:27:30;;;;;;;26.75;12.25;;;;;;;;;;5122069;27;20520;-81
2023/03/12 11:29:56;;;;;;;32.75;11.23;;;;;;;;;;5132234;27;20669;-80
2023/03/12 11:32:22;;;;;;;35.17;12.52;;;;;;;;;;5137433;27;20040;-78
2023/03/12 11:34:48;;;;;;;32.35;11.48;;;;;;;;;;5131968;27;20098;-83
2023/03/12 11:37:14;;;;;;;38.03;12.10;;;;;;;;;;5123881;27;20073;-88
2023/03/12 11:39:55;;;;;;;31.73;11.07;;;;;;;;;;5143307;27;20096;-88
2023/03/12 11:42:28;;;;;;;34.75;11.32;;;;;;;;;;5142218;27;20035;-80
2023/03/12 11:44:54;;;;;;;30.25;11.10;;;;;;;;;;5118605;27;20047;-80
2023/03/12 11:47:39;;;;;;;28.75;11.05;;;;;;;;;;5125789;27;20090;-80
2023/03/12 11:50:08;;;;;;;36.20;11.00;;;;;;;;;;5126367;27;20106;-81
2023/03/12 11:52:34;;;;;;;28.63;9.88;;;;;;;;;;5120282;27;20054;-81
2023/03/12 11:55:09;;;;;;;29.90;9.85;;;;;;;;;;5124887;27;20397;-80
2023/03/12 11:57:38;;;;;;;31.92;9.98;;;;;;;;;;5144138;27;20045;-80
2023/03/12 12:00:15;;;;;;;33.97;10.05;;;;;;;;;;5144966;27;20134;-80
2023/03/12 12:02:53;;;;;;;28.25;9.35;;;;;;;;;;5119396;27;20046;-80
2023/03/12 12:05:22;;;;;;;27.08;8.95;;;;;;;;;;5147807;27;20086;-79
2023/03/12 12:07:54;;;;;;;28.35;8.50;;;;;;;;;;5141413;27;20039;-81
2023/03/12 12:10:24;;;;;;;29.40;7.72;;;;;;;;;;5118064;27;20045;-83
2023/03/12 12:13:26;;;;;;;23.33;7.82;;;;;;;;;;5137485;27;20119;-84
2023/03/12 12:16:01;;;;;;;31.95;8.75;;;;;;;;;;5063314;28;20049;-81
2023/03/12 12:18:47;;;;;;;30.67;8.43;;;;;;;;;;5122149;27;20130;-87
2023/03/12 12:21:23;;;;;;;21.23;8.20;;;;;;;;;;5144304;27;20054;-87
2023/03/12 12:23:57;;;;;;;31.10;8.07;;;;;;;;;;5148062;27;20050;-85
2023/03/12 12:26:38;;;;;;;25.75;8.20;;;;;;;;;;5140943;27;20074;-88
2023/03/12 12:29:04;;;;;;;27.10;7.13;;;;;;;;;;5122096;27;20129;-86
2023/03/12 12:31:31;;;;;;;27.88;8.20;;;;;;;;;;5123724;27;20065;-86
2023/03/12 12:34:04;;;;;;;32.03;7.95;;;;;;;;;;5133619;27;20051;-83
2023/03/12 12:36:33;;;;;;;34.03;7.82;;;;;;;;;;5122449;27;20449;-85
2023/03/12 12:39:04;;;;;;;25.90;6.85;;;;;;;;;;5123775;27;20046;-86
2023/03/12 12:41:45;;;;;;;27.42;6.88;;;;;;;;;;5141804;27;20035;-84
2023/03/12 12:44:12;;;;;;;21.50;5.78;;;;;;;;;;5123075;27;20039;-83
2023/03/12 12:46:39;;;;;;;28.02;7.03;;;;;;;;;;5146709;27;20055;-83
2023/03/12 12:49:05;;;;;;;28.92;7.72;;;;;;;;;;5129827;27;20039;-86
2023/03/12 12:51:34;;;;;;;23.02;7.15;;;;;;;;;;5137693;27;20046;-88
2023/03/12 12:54:00;;;;;;;30.60;7.18;;;;;;;;;;5134334;27;20043;-87
2023/03/12 12:56:27;;;;;;;27.63;7.22;;;;;;;;;;5125974;27;20051;-80
2023/03/12 12:59:13;;;;;;;24.25;6.60;;;;;;;;;;5124866;27;20038;-80
2023/03/12 13:01:39;;;;;;;24.65;6.80;;;;;;;;;;5117598;27;20077;-80
2023/03/12 13:04:09;;;;;;;24.05;7.55;;;;;;;;;;5121087;27;20058;-80
2023/03/12 13:07:10;;;;;;;27.58;6.80;;;;;;;;;;5140649;27;20495;-80
2023/03/12 13:09:44;;;;;;;23.05;6.63;;;;;;;;;;5047754;28;20041;-80
2023/03/12 13:12:15;;;;;;;27.23;6.18;;;;;;;;;;5113904;27;20050;-80
2023/03/12 13:14:45;;;;;;;20.20;6.07;;;;;;;;;;5139826;27;20430;-80
2023/03/12 13:17:26;;;;;;;34.10;6.80;;;;;;;;;;5117496;27;20052;-80
2023/03/12 13:20:13;;;;;;;23.60;5.80;;;;;;;;;;5136134;27;20500;-80
2023/03/12 13:22:51;;;;;;;26.38;6.93;;;;;;;;;;5144513;27;20043;-81
2023/03/12 13:25:17;;;;;;;24.50;8.13;;;;;;;;;;5125188;27;20078;-81
2023/03/12 13:27:45;;;;;;;26.23;6.82;;;;;;;;;;5139384;27;20070;-81
2023/03/12 13:30:27;;;;;;;31.77;7.35;;;;;;;;;;5137516;27;20122;-81
2023/03/12 13:32:56;;;;;;;24.92;7.05;;;;;;;;;;5118018;27;20050;-80
2023/03/12 13:35:22;;;;;;;24.55;6.80;;;;;;;;;;5116044;27;20045;-80
2023/03/12 13:37:51;;;;;;;22.45;6.40;;;;;;;;;;5133786;27;20036;-80
2023/03/12 13:40:29;;;;;;;23.13;6.90;;;;;;;;;;5120155;27;20146;-80
2023/03/12 13:43:08;;;;;;;18.55;6.10;;;;;;;;;;5124332;27;20058;-79
2023/03/12 13:45:39;;;;;;;30.73;6.93;;;;;;;;;;5141514;27;20043;-80
2023/03/12 13:48:13;;;;;;;25.60;6.45;;;;;;;;;;5144184;27;20089;-80
2023/03/12 13:50:50;;;;;;;30.15;6.50;;;;;;;;;;5122793;27;20167;-80
2023/03/12 13:53:21;;;;;;;25.98;6.40;;;;;;;;;;5139467;27;20039;-80
2023/03/12 13:55:50;;;;;;;23.20;6.97;;;;;;;;;;5139177;27;20057;-80
2023/03/12 13:58:22;;;;;;;22.70;7.50;;;;;;;;;;5120062;27;20038;-80
2023/03/12 14:00:48;;;;;;;24.70;6.35;;;;;;;;;;5123163;27;20441;-80
2023/03/12 14:03:14;;;;;;;25.55;6.43;;;;;;;;;;5138051;27;20084;-80
2023/03/12 14:06:05;;;;;;;22.65;5.63;;;;;;;;;;5123187;27;20049;-80
2023/03/12 14:08:49;;;;;;;26.73;7.68;;;;;;;;;;5141415;27;20521;-80
2023/03/12 14:11:34;;;;;;;23.77;5.97;;;;;;;;;;5141726;27;20038;-80
2023/03/12 14:14:19;;;;;;;22.70;6.80;;;;;;;;;;5120692;27;20603;-80
2023/03/12 14:16:48;;;;;;;23.92;6.53;;;;;;;;;;5145347;27;20043;-79
2023/03/12 14:19:15;;;;;;;25.85;6.57;;;;;;;;;;5122090;27;20094;-80
2023/03/12 14:21:42;;;;;;;30.13;9.85;;;;;;;;;;5118984;27;20074;-80
2023/03/12 14:24:14;;;;;;;29.27;9.55;;;;;;;;;;5124872;27;20043;-80
2023/03/12 14:26:41;;;;;;;27.25;7.10;;;;;;;;;;5141055;27;20066;-80
2023/03/12 14:29:17;;;;;;;24.08;6.82;;;;;;;;;;5119117;27;20503;-80
2023/03/12 14:31:43;;;;;;;22.83;6.75;;;;;;;;;;5141186;27;20085;-80
2023/03/12 14:34:11;;;;;;;30.13;7.45;;;;;;;;;;5135824;27;20121;-80
2023/03/12 14:36:39;;;;;;;29.98;7.75;;;;;;;;;;5139732;27;20117;-79
2023/03/12 14:39:11;;;;;;;26.38;7.82;;;;;;;;;;5143267;27;20035;-80
2023/03/12 14:41:42;;;;;;;28.58;7.60;;;;;;;;;;5128503;27;20114;-80